METAR Data
IDs: Format: Raw Decoded Include TAF

Data at: 0047 UTC 25 Apr 2019

PAVD 242356Z 22010KT 10SM FEW035 SCT080 SCT120 06/M04 A3017 RMK AO2 SLP242 T00611044 10067 20028 50001
PAVD 242256Z VRB05KT 10SM FEW020 FEW050 BKN070 06/M06 A3018 RMK AO2 SLP243 T00611056
PAVD 242156Z 14006G14KT 10SM FEW060 SCT100 BKN300 06/M07 A3017 RMK AO2 SLP242 T00611072
PAVD 242056Z 23006KT 10SM FEW055 BKN150 BKN300 04/M06 A3017 RMK AO2 SLP241 T00441061 52007
PAVD 241956Z 23005KT 10SM FEW040 FEW055 SCT075 04/M06 A3016 RMK AO2 SLP239 T00391056
PAVD 241856Z VRB04KT 10SM FEW025 FEW055 SCT300 04/M05 A3015 RMK AO2 SLP236 T00391050
PAVD 241756Z VRB03KT 10SM FEW025 SCT060 SCT100 03/M05 A3015 RMK AO2 SLP234 T00281050 10028 21017 51015
PAVD 241656Z 00000KT 10SM FEW023 FEW050 BKN070 02/M05 A3014 RMK AO2 SLP232 VCSH W-NW T00171050
PAVD 241556Z 04003KT 10SM FEW040 BKN050 BKN065 00/M03 A3012 RMK AO2 SLP226 VCSH S-W T00001033
PAVD 241456Z 00000KT 10SM FEW023 BKN070 M01/M03 A3010 RMK AO2 SLP219 T10111028 51010
PAVD 241410Z 00000KT 10SM FEW023 BKN070 M02/M03 A3009 RMK AO2
PAVD 241356Z AUTO 00000KT 10SM FEW023 BKN070 M02/M03 A3009 RMK AO2 SLP216 T10171028 FZRANO
PAVD 241326Z AUTO 06004KT 10SM SCT021 BKN070 M02/M03 A3009 RMK AO2 FZRANO
PAVD 241256Z AUTO 09003KT 10SM OVC021 M01/M02 A3009 RMK AO2 SLP214 T10111022 FZRANO
PAVD 241238Z AUTO 00000KT 10SM BKN021 OVC075 M02/M03 A3008 RMK AO2 FZRANO
PAVD 241212Z AUTO 00000KT 10SM SCT023 SCT080 OVC100 M02/M03 A3008 RMK AO2 FZRANO
PAVD 241156Z AUTO 00000KT 10SM BKN023 OVC090 M01/M02 A3007 RMK AO2 SLP209 60000 7//// T10111022 10028 21017 51014 FZRANO
PAVD 241144Z AUTO 00000KT 10SM BKN023 OVC100 M01/M02 A3007 RMK AO2 FZRANO
PAVD 241109Z AUTO 00000KT 10SM FEW024 BKN055 M01/M02 A3007 RMK AO2 FZRANO
PAVD 241056Z AUTO 00000KT 10SM BKN024 OVC060 M01/M02 A3006 RMK AO2 SLP206 T10111022 FZRANO
PAVD 241036Z AUTO 00000KT 10SM BKN024 M01/M02 A3006 RMK AO2 FZRANO
PAVD 240956Z AUTO 00000KT 10SM SCT031 SCT120 00/M01 A3005 RMK AO2 UPE56SNB36E46 SLP201 P0000 T00001011 FZRANO
PAVD 240856Z AUTO 00000KT 10SM UP OVC070 00/M01 A3003 RMK AO2 UPE12B45 SLP195 P0000 60000 T00001011 51023 FZRANO
PAVD 240756Z AUTO 00000KT 10SM UP FEW039 OVC070 M01/M02 A3001 RMK AO2 UPB55 SLP188 P0000 T10061017 400501006 FZRANO
PAVD 240656Z AUTO 00000KT 10SM FEW011 SCT039 03/M02 A2999 RMK AO2 RAE26 SLP179 P0000 T00281022
PAVD 240556Z 10003KT 10SM -RA FEW001 BKN045 BKN100 03/M02 A2996 RMK AO2 RAB51SNE25 SLP172 P0000 60000 T00281022 10050 20011 53019
PAVD 240456Z 00000KT 10SM -SN FEW001 BKN065 BKN100 03/M02 A2994 RMK AO2 RAB11E18SNB18 SLP164 P0000 T00281022
PAVD 240436Z 24003KT 10SM -SN FEW001 BKN065 BKN100 03/M02 A2993 RMK AO2 RAB11E18SNB18 P0000
PAVD 240418Z COR 21006KT 6SM -SN SCT001 BKN015 BKN100 03/M02 A2993 RMK AO2 RAB11E18SNB18 P0000
PAVD 240356Z 26009KT 10SM FEW005 BKN055 BKN100 03/M02 A2992 RMK AO2 SLP157 VCSH SW T00281022
PAVD 240256Z 24008KT 10SM FEW010 BKN055 BKN100 03/M02 A2991 RMK AO2 SLP152 60000 T00281022 51021
PAVD 240156Z 26008KT 10SM FEW010 SCT035 SCT090 03/M02 A2989 RMK AO2 RAB12E30 SLP148 P0000 T00281022
PAVD 240056Z 25008KT 10SM FEW001 BKN040 BKN100 03/M02 A2987 RMK AO2 SLP141 VCSH NE-E SW T00281017
PAVD 232356Z 26012KT 10SM FEW001 SCT045 BKN090 05/M03 A2984 RMK AO2 SLP131 VCSH NE-SE SW-W T00501033 10050 20022 53013
PAVD 232256Z 26010KT 10SM FEW017 SCT040 SCT090 05/M04 A2982 RMK AO2 SLP123 VIRGA W T00501044
PAVD 232156Z 23006KT 10SM FEW020 SCT045 SCT075 04/M03 A2981 RMK AO2 SLP120 T00441028
PAVD 232056Z 22005KT 10SM FEW015 SCT035 BKN070 03/M02 A2981 RMK AO2 SLP118 T00331017 51016
PAVD 231956Z 25006KT 10SM FEW012 FEW030 BKN070 03/M01 A2979 RMK AO2 SLP113 T00331006
PAVD 231856Z 24004KT 10SM FEW008 SCT015 BKN200 02/M01 A2977 RMK AO2 SLP107 T00221011
PAVD 231756Z 16004KT 10SM FEW003 SCT015 SCT050 02/M01 A2976 RMK AO2 SLP102 6//// T00221011 10039 21006 51021
PAVD 231656Z 21003KT 10SM FEW002 SCT010 BKN050 01/M01 A2974 RMK AO2 SNE19 SLP097 T00111006
PAVD 231556Z 00000KT 8SM -SN FEW001 BKN040 BKN065 01/M01 A2972 RMK AO2 SLP089 T00061006 PNO $
PAVD 231539Z 00000KT 7SM -SN BR FEW001 BKN040 BKN065 00/M01 A2971 RMK AO2 VIS SW W 1 PNO $
PAVD 231535Z COR 00000KT 7SM -SN FEW001 BKN040 BKN065 00/M01 A2971 RMK AO2 VIS SW W 1 PNO $
PAVD 231456Z 08003KT 1SM -SN BR FEW001 BKN012 OVC050 00/M01 A2970 RMK AO2 UPE10SNB10 SLP081 6//// T00001011 53016 PNO $
PAVD 231411Z 12003KT 4SM -SN BR FEW001 SCT025 OVC055 00/M01 A2968 RMK AO2 UPE10SNB10 PNO $
PAVD 231356Z AUTO 09004KT 10SM UP FEW013 SCT038 OVC060 00/M01 A2968 RMK AO2 UPE04B31 SLP075 T00001011 FZRANO PNO $
PAVD 231345Z AUTO 00000KT 10SM UP FEW015 SCT037 OVC065 00/M01 A2968 RMK AO2 UPE04B31 FZRANO PNO $
PAVD 231334Z AUTO 00000KT 7SM UP BKN015 BKN034 OVC065 M01/M01 A2967 RMK AO2 UPE04B31 FZRANO PNO $
PAVD 231312Z AUTO 16003KT 10SM SCT009 SCT038 OVC070 00/M01 A2967 RMK AO2 UPE04 FZRANO PNO $
PAVD 231256Z AUTO 08004KT 10SM UP FEW011 BKN037 OVC070 00/M01 A2966 RMK AO2 UPB47 SLP070 T00001011 FZRANO PNO $